»·PEaware :: N6065L KAJO-KVCV

N6065L :: KAJO-KVCV

FLIGHT INFORMATION

Flight Status: Arrived
Operator: Privately registered:
United States
More flights under this callsign
Pilot: Kyle A. (14988)
Aircraft: CESSNA 172 SKYHAWK
(C172)
More flights by this aircraft type
Origin: KAJO Corona Mun
United States
Destination: KVCV Socal Logistics
United States
More flights between these airports :: More routes between these airports
Route: PDZ V442 APLES
File this flight plan on PilotEdge
Remarks: I-11
Altitude:
(Current/Filed)
9,000ft
Speed:
(Current/Filed)
120kts
Departed: 01-Dec-17 03:35 PM
Arrived: 01-Dec-17 04:32 PM
Distance/Time
Traveled:
43nm/0:57
Distance/Time
To Go:
Arrived

Flight Plot

Page will automatically refresh every two minutes.


Map Options




Map Legend


Flown Route
Filed Route
Departure Airport
Arrival Airport
Navaid (VOR, NDB)
Fix

Horizontal Profiles

Position Reports

Time Latitude Longitude Heading Altitude Ground
Speed
01-Dec-17 15:33 33.896737 -117.597527 90 536ft 0kts
01-Dec-17 15:34 33.896737 -117.597527 90 536ft 0kts
01-Dec-17 15:35 33.897123 -117.597396 343 536ft 10kts
01-Dec-17 15:36 33.897227 -117.597427 349 536ft 0kts
01-Dec-17 15:37 33.897227 -117.597427 349 536ft 0kts
01-Dec-17 15:38 33.897229 -117.597428 348 536ft 0kts
01-Dec-17 15:39 33.897482 -117.597490 348 536ft 6kts
01-Dec-17 15:40 33.897668 -117.610185 272 953ft 71kts
01-Dec-17 15:41 33.911447 -117.613570 64 2097ft 95kts
01-Dec-17 15:42 33.914145 -117.585980 83 2949ft 102kts
01-Dec-17 15:43 33.917121 -117.546138 85 4123ft 101kts
01-Dec-17 15:44 33.930369 -117.519179 42 5099ft 97kts
01-Dec-17 15:45 33.942147 -117.497070 103 5862ft 99kts
01-Dec-17 15:46 33.920057 -117.498692 222 6905ft 85kts
01-Dec-17 15:47 33.906720 -117.515241 272 7585ft 84kts
01-Dec-17 15:48 33.930299 -117.513263 32 8492ft 98kts
01-Dec-17 15:49 33.944698 -117.493001 94 9007ft 109kts
01-Dec-17 15:50 33.923227 -117.490526 224 9007ft 99kts
01-Dec-17 15:51 33.904588 -117.512948 260 9001ft 91kts
01-Dec-17 15:52 33.923213 -117.526340 17 8992ft 100kts
01-Dec-17 15:53 33.953603 -117.508859 22 8999ft 131kts
01-Dec-17 15:54 33.985612 -117.489702 22 8998ft 125kts
01-Dec-17 15:55 34.016412 -117.471230 22 9001ft 122kts
01-Dec-17 15:56 34.046893 -117.452948 22 9004ft 125kts
01-Dec-17 15:57 34.078701 -117.433838 23 9005ft 128kts
01-Dec-17 15:58 34.109579 -117.415251 23 9005ft 129kts
01-Dec-17 15:59 34.140729 -117.396469 23 9005ft 129kts
01-Dec-17 16:00 34.172920 -117.377065 23 9005ft 129kts
01-Dec-17 16:01 34.205156 -117.357622 23 9005ft 129kts
01-Dec-17 16:02 34.237128 -117.338320 23 9003ft 129kts
01-Dec-17 16:03 34.269176 -117.318955 23 9011ft 128kts
01-Dec-17 16:04 34.301029 -117.299695 23 9018ft 127kts
01-Dec-17 16:05 34.332745 -117.280501 23 9024ft 127kts
01-Dec-17 16:06 34.364385 -117.261337 23 9028ft 127kts
01-Dec-17 16:07 34.395889 -117.242238 23 9031ft 127kts
01-Dec-17 16:08 34.427400 -117.223119 23 9032ft 126kts
01-Dec-17 16:09 34.458879 -117.204041 23 9036ft 126kts
01-Dec-17 16:10 34.490378 -117.184952 23 9005ft 127kts
01-Dec-17 16:11 34.521753 -117.165862 23 9010ft 125kts
01-Dec-17 16:12 34.553534 -117.148251 10 8924ft 131kts
01-Dec-17 16:13 34.588120 -117.143066 0 8192ft 136kts
01-Dec-17 16:14 34.625470 -117.145828 350 7389ft 135kts
01-Dec-17 16:15 34.662333 -117.157124 339 6638ft 136kts
01-Dec-17 16:16 34.694094 -117.174698 330 6603ft 120kts
01-Dec-17 16:17 34.721542 -117.197282 320 6604ft 118kts
01-Dec-17 16:18 34.745375 -117.224678 312 6602ft 118kts
01-Dec-17 16:19 34.765292 -117.256410 303 6602ft 118kts
01-Dec-17 16:20 34.781042 -117.292432 294 6388ft 131kts
01-Dec-17 16:21 34.792871 -117.337072 283 5502ft 141kts
01-Dec-17 16:22 34.788749 -117.377715 195 5019ft 129kts
01-Dec-17 16:23 34.752194 -117.376624 183 4454ft 138kts
01-Dec-17 16:24 34.715878 -117.379378 184 4302ft 121kts
01-Dec-17 16:25 34.682020 -117.382424 184 4010ft 132kts
01-Dec-17 16:26 34.644559 -117.385619 180 3294ft 136kts
01-Dec-17 16:27 34.609560 -117.387002 183 3490ft 121kts
01-Dec-17 16:28 34.596091 -117.413000 280 4234ft 101kts
01-Dec-17 16:29 34.600892 -117.443612 283 5307ft 85kts
01-Dec-17 16:30 34.606222 -117.475834 282 5552ft 109kts
01-Dec-17 16:31 34.626334 -117.471663 93 5166ft 127kts
01-Dec-17 16:32 34.612140 -117.428461 112 4001ft 148kts
01-Dec-17 16:33 34.601828 -117.389584 64 3897ft 100kts
01-Dec-17 16:34 34.619467 -117.366723 46 3613ft 89kts
01-Dec-17 16:35 34.612164 -117.356567 248 3011ft 67kts
01-Dec-17 16:36 34.598197 -117.369381 223 2845ft 45kts
01-Dec-17 16:37 34.593990 -117.372703 180 2856ft 0kts
01-Dec-17 16:38 34.593990 -117.372703 180 2856ft 0kts
01-Dec-17 16:39 34.591675 -117.372129 128 2862ft 13kts
01-Dec-17 16:40 34.590931 -117.371178 311 2864ft 0kts
01-Dec-17 16:41 34.590931 -117.371178 311 2864ft 0kts
01-Dec-17 16:42 34.590931 -117.371178 311 2864ft 0kts
01-Dec-17 16:43 34.590931 -117.371178 311 2864ft 0kts
01-Dec-17 16:44 34.590931 -117.371178 311 2864ft 0kts
01-Dec-17 16:45 34.590931 -117.371178 311 2864ft 0kts
01-Dec-17 16:46 34.590931 -117.371178 311 2864ft 0kts
01-Dec-17 16:47 34.590931 -117.371178 311 2864ft 0kts
01-Dec-17 16:48 34.590931 -117.371178 311 2864ft 0kts
01-Dec-17 16:49 34.590931 -117.371178 311 2864ft 0kts
01-Dec-17 16:50 34.590931 -117.371178 311 2864ft 0kts
01-Dec-17 16:51 34.590931 -117.371178 311 2864ft 0kts

Navigation Log

Ident Type
1. KAJO Airport
2. PDZ Navaid
3. APLES Fix
4. KVCV Airport